Terminal Aerodrome Forecast
Issued by NWS

Home | Current Version | Previous Version | Text Only | Print | Product List | Glossary On
Versions: 1 2 3 4 5 6 7 8 9 10 11 12 13 14
000
FTUS42 KMLB 102300
TAFLEE
TAF
KLEE 102320Z 1100/1124 18008KT P6SM SHRA VCTS SCT050CB BKN120
      OVC250
      TEMPO 1100/1102 4SM TSRA BKN035CB BKN050 OVC080
     FM110200 VRB03KT P6SM BKN250
     FM111400 17005KT P6SM FEW025 SCT250
     FM112000 15007KT P6SM VCTS SCT040CB BKN090 BKN250=

USA.gov is the U.S. government's official web portal to all federal, state and local government web resources and services.